sensor_id;sensor_type;location;lat;lon;timestamp;P1;durP1;ratioP1;P2;durP2;ratioP2
71298;SDS011;59083;47.974;21.722;2022-10-19T00:02:51;31.17;;;17.77;;
71298;SDS011;59083;47.974;21.722;2022-10-19T00:05:52;31.03;;;17.37;;
71298;SDS011;59083;47.974;21.722;2022-10-19T00:08:55;29.37;;;16.52;;
71298;SDS011;59083;47.974;21.722;2022-10-19T00:11:58;32.70;;;17.55;;
71298;SDS011;59083;47.974;21.722;2022-10-19T00:14:59;32.53;;;17.37;;
71298;SDS011;59083;47.974;21.722;2022-10-19T00:18:01;32.00;;;17.13;;
71298;SDS011;59083;47.974;21.722;2022-10-19T00:21:03;31.07;;;17.13;;
71298;SDS011;59083;47.974;21.722;2022-10-19T00:24:08;36.03;;;18.15;;
71298;SDS011;59083;47.974;21.722;2022-10-19T00:27:10;31.52;;;17.58;;
71298;SDS011;59083;47.974;21.722;2022-10-19T00:30:11;30.80;;;16.98;;
71298;SDS011;59083;47.974;21.722;2022-10-19T00:33:12;27.43;;;16.80;;
71298;SDS011;59083;47.974;21.722;2022-10-19T00:36:24;34.10;;;18.20;;
71298;SDS011;59083;47.974;21.722;2022-10-19T00:39:28;33.05;;;17.30;;
71298;SDS011;59083;47.974;21.722;2022-10-19T00:42:29;31.60;;;16.92;;
71298;SDS011;59083;47.974;21.722;2022-10-19T00:45:30;30.15;;;17.02;;
71298;SDS011;59083;47.974;21.722;2022-10-19T00:48:31;35.37;;;18.00;;
71298;SDS011;59083;47.974;21.722;2022-10-19T00:51:33;30.57;;;17.77;;
71298;SDS011;59083;47.974;21.722;2022-10-19T00:54:37;31.95;;;17.80;;
71298;SDS011;59083;47.974;21.722;2022-10-19T00:57:40;33.13;;;17.83;;
71298;SDS011;59083;47.974;21.722;2022-10-19T01:00:42;31.02;;;18.17;;
71298;SDS011;59083;47.974;21.722;2022-10-19T01:03:43;29.97;;;16.97;;
71298;SDS011;59083;47.974;21.722;2022-10-19T01:06:45;28.77;;;17.53;;
71298;SDS011;59083;47.974;21.722;2022-10-19T01:09:46;45.60;;;17.77;;
71298;SDS011;59083;47.974;21.722;2022-10-19T01:12:56;34.25;;;18.70;;
71298;SDS011;59083;47.974;21.722;2022-10-19T01:16:18;36.50;;;18.25;;
71298;SDS011;59083;47.974;21.722;2022-10-19T01:23:19;31.70;;;17.90;;
71298;SDS011;59083;47.974;21.722;2022-10-19T01:36:55;35.30;;;17.97;;
71298;SDS011;59083;47.974;21.722;2022-10-19T01:40:14;32.43;;;16.73;;
71298;SDS011;59083;47.974;21.722;2022-10-19T01:43:48;32.08;;;17.15;;
71298;SDS011;59083;47.974;21.722;2022-10-19T01:47:03;31.23;;;17.67;;
71298;SDS011;59083;47.974;21.722;2022-10-19T01:50:12;33.95;;;17.30;;
71298;SDS011;59083;47.974;21.722;2022-10-19T01:53:17;34.30;;;17.27;;
71298;SDS011;59083;47.974;21.722;2022-10-19T01:56:21;32.60;;;17.83;;
71298;SDS011;59083;47.974;21.722;2022-10-19T01:59:25;37.05;;;17.60;;
71298;SDS011;59083;47.974;21.722;2022-10-19T02:02:27;33.60;;;17.85;;
71298;SDS011;59083;47.974;21.722;2022-10-19T02:05:30;34.47;;;17.58;;
71298;SDS011;59083;47.974;21.722;2022-10-19T02:08:41;32.03;;;17.40;;
71298;SDS011;59083;47.974;21.722;2022-10-19T02:11:50;33.13;;;17.33;;
71298;SDS011;59083;47.974;21.722;2022-10-19T02:14:56;39.28;;;19.05;;
71298;SDS011;59083;47.974;21.722;2022-10-19T02:18:01;30.02;;;17.98;;
71298;SDS011;59083;47.974;21.722;2022-10-19T02:21:04;33.13;;;17.60;;
71298;SDS011;59083;47.974;21.722;2022-10-19T02:24:06;31.03;;;17.77;;
71298;SDS011;59083;47.974;21.722;2022-10-19T02:27:07;31.20;;;18.27;;
71298;SDS011;59083;47.974;21.722;2022-10-19T02:30:13;33.97;;;18.70;;
71298;SDS011;59083;47.974;21.722;2022-10-19T02:33:16;34.35;;;18.02;;
71298;SDS011;59083;47.974;21.722;2022-10-19T02:36:18;34.08;;;19.00;;
71298;SDS011;59083;47.974;21.722;2022-10-19T02:39:20;33.30;;;17.87;;
71298;SDS011;59083;47.974;21.722;2022-10-19T02:42:23;39.10;;;19.20;;
71298;SDS011;59083;47.974;21.722;2022-10-19T02:45:34;37.10;;;18.20;;
71298;SDS011;59083;47.974;21.722;2022-10-19T02:48:38;37.65;;;18.50;;
71298;SDS011;59083;47.974;21.722;2022-10-19T02:51:54;32.00;;;17.40;;
71298;SDS011;59083;47.974;21.722;2022-10-19T02:55:01;36.07;;;18.20;;
71298;SDS011;59083;47.974;21.722;2022-10-19T02:58:03;31.43;;;18.43;;
71298;SDS011;59083;47.974;21.722;2022-10-19T03:01:04;35.42;;;19.15;;
71298;SDS011;59083;47.974;21.722;2022-10-19T03:04:05;38.13;;;19.37;;
71298;SDS011;59083;47.974;21.722;2022-10-19T03:07:07;36.55;;;20.37;;
71298;SDS011;59083;47.974;21.722;2022-10-19T03:10:10;35.17;;;19.83;;
71298;SDS011;59083;47.974;21.722;2022-10-19T03:13:11;33.23;;;19.07;;
71298;SDS011;59083;47.974;21.722;2022-10-19T03:16:12;36.65;;;19.87;;
71298;SDS011;59083;47.974;21.722;2022-10-19T03:19:14;38.00;;;19.37;;
71298;SDS011;59083;47.974;21.722;2022-10-19T03:22:15;38.10;;;20.42;;
71298;SDS011;59083;47.974;21.722;2022-10-19T03:25:16;44.00;;;21.63;;
71298;SDS011;59083;47.974;21.722;2022-10-19T03:28:17;34.57;;;20.07;;
71298;SDS011;59083;47.974;21.722;2022-10-19T03:31:18;51.20;;;25.98;;
71298;SDS011;59083;47.974;21.722;2022-10-19T03:34:20;36.13;;;20.48;;
71298;SDS011;59083;47.974;21.722;2022-10-19T03:37:21;34.03;;;20.12;;
71298;SDS011;59083;47.974;21.722;2022-10-19T03:40:22;32.30;;;19.50;;
71298;SDS011;59083;47.974;21.722;2022-10-19T03:43:23;34.77;;;19.83;;
71298;SDS011;59083;47.974;21.722;2022-10-19T03:46:25;36.20;;;20.40;;
71298;SDS011;59083;47.974;21.722;2022-10-19T03:49:27;33.80;;;19.17;;
71298;SDS011;59083;47.974;21.722;2022-10-19T03:52:28;38.38;;;21.65;;
71298;SDS011;59083;47.974;21.722;2022-10-19T03:55:29;35.97;;;20.80;;
71298;SDS011;59083;47.974;21.722;2022-10-19T03:58:31;33.30;;;19.37;;
71298;SDS011;59083;47.974;21.722;2022-10-19T04:01:35;41.50;;;21.77;;
71298;SDS011;59083;47.974;21.722;2022-10-19T04:04:39;36.75;;;20.83;;
71298;SDS011;59083;47.974;21.722;2022-10-19T04:07:40;35.92;;;20.17;;
71298;SDS011;59083;47.974;21.722;2022-10-19T04:10:41;38.03;;;19.50;;
71298;SDS011;59083;47.974;21.722;2022-10-19T04:13:42;36.03;;;19.20;;
71298;SDS011;59083;47.974;21.722;2022-10-19T04:16:44;42.78;;;20.52;;
71298;SDS011;59083;47.974;21.722;2022-10-19T04:19:45;35.85;;;19.50;;
71298;SDS011;59083;47.974;21.722;2022-10-19T04:22:46;53.00;;;24.75;;
71298;SDS011;59083;47.974;21.722;2022-10-19T04:25:47;33.70;;;18.87;;
71298;SDS011;59083;47.974;21.722;2022-10-19T04:28:48;39.40;;;20.73;;
71298;SDS011;59083;47.974;21.722;2022-10-19T04:31:50;39.30;;;20.10;;
71298;SDS011;59083;47.974;21.722;2022-10-19T04:34:52;31.87;;;19.00;;
71298;SDS011;59083;47.974;21.722;2022-10-19T04:37:53;32.40;;;18.52;;
71298;SDS011;59083;47.974;21.722;2022-10-19T04:40:54;38.70;;;20.60;;
71298;SDS011;59083;47.974;21.722;2022-10-19T04:43:56;46.30;;;21.53;;
71298;SDS011;59083;47.974;21.722;2022-10-19T04:47:00;45.70;;;21.30;;
71298;SDS011;59083;47.974;21.722;2022-10-19T04:50:01;45.72;;;19.40;;
71298;SDS011;59083;47.974;21.722;2022-10-19T04:53:02;39.80;;;19.42;;
71298;SDS011;59083;47.974;21.722;2022-10-19T04:56:05;38.77;;;19.00;;
71298;SDS011;59083;47.974;21.722;2022-10-19T04:59:08;36.93;;;20.30;;
71298;SDS011;59083;47.974;21.722;2022-10-19T05:02:10;34.33;;;19.35;;
71298;SDS011;59083;47.974;21.722;2022-10-19T05:05:11;35.38;;;19.33;;
71298;SDS011;59083;47.974;21.722;2022-10-19T05:08:13;35.88;;;19.35;;
71298;SDS011;59083;47.974;21.722;2022-10-19T05:11:16;36.00;;;19.30;;
71298;SDS011;59083;47.974;21.722;2022-10-19T05:14:18;46.43;;;19.83;;
71298;SDS011;59083;47.974;21.722;2022-10-19T05:17:19;47.50;;;21.65;;
71298;SDS011;59083;47.974;21.722;2022-10-19T05:20:20;35.72;;;19.95;;
71298;SDS011;59083;47.974;21.722;2022-10-19T05:23:22;36.70;;;19.45;;
71298;SDS011;59083;47.974;21.722;2022-10-19T05:26:26;42.50;;;19.90;;
71298;SDS011;59083;47.974;21.722;2022-10-19T05:29:27;35.23;;;18.90;;
71298;SDS011;59083;47.974;21.722;2022-10-19T05:32:29;37.53;;;20.08;;
71298;SDS011;59083;47.974;21.722;2022-10-19T05:35:31;40.30;;;20.23;;
71298;SDS011;59083;47.974;21.722;2022-10-19T05:38:32;37.03;;;18.75;;
71298;SDS011;59083;47.974;21.722;2022-10-19T05:41:33;34.13;;;18.97;;
71298;SDS011;59083;47.974;21.722;2022-10-19T05:44:34;37.17;;;18.87;;
71298;SDS011;59083;47.974;21.722;2022-10-19T05:47:37;35.80;;;18.85;;
71298;SDS011;59083;47.974;21.722;2022-10-19T05:50:38;36.97;;;20.42;;
71298;SDS011;59083;47.974;21.722;2022-10-19T05:53:39;36.42;;;20.73;;
71298;SDS011;59083;47.974;21.722;2022-10-19T05:56:41;36.83;;;19.60;;
71298;SDS011;59083;47.974;21.722;2022-10-19T05:59:43;36.90;;;20.33;;
71298;SDS011;59083;47.974;21.722;2022-10-19T06:02:44;33.60;;;20.05;;
71298;SDS011;59083;47.974;21.722;2022-10-19T06:05:45;45.15;;;23.50;;
71298;SDS011;59083;47.974;21.722;2022-10-19T06:08:46;45.25;;;20.50;;
71298;SDS011;59083;47.974;21.722;2022-10-19T06:11:48;39.60;;;21.07;;
71298;SDS011;59083;47.974;21.722;2022-10-19T06:14:49;38.27;;;22.40;;
71298;SDS011;59083;47.974;21.722;2022-10-19T06:17:51;41.28;;;20.42;;
71298;SDS011;59083;47.974;21.722;2022-10-19T06:20:52;40.97;;;19.87;;
71298;SDS011;59083;47.974;21.722;2022-10-19T06:23:55;37.42;;;20.65;;
71298;SDS011;59083;47.974;21.722;2022-10-19T06:26:57;38.90;;;21.37;;
71298;SDS011;59083;47.974;21.722;2022-10-19T06:29:58;33.67;;;19.50;;
71298;SDS011;59083;47.974;21.722;2022-10-19T06:32:59;39.20;;;20.92;;
71298;SDS011;59083;47.974;21.722;2022-10-19T06:36:04;36.60;;;21.02;;
71298;SDS011;59083;47.974;21.722;2022-10-19T06:39:07;37.70;;;19.65;;
71298;SDS011;59083;47.974;21.722;2022-10-19T06:42:08;36.67;;;20.43;;
71298;SDS011;59083;47.974;21.722;2022-10-19T06:45:09;37.57;;;20.33;;
71298;SDS011;59083;47.974;21.722;2022-10-19T06:48:11;39.67;;;20.00;;
71298;SDS011;59083;47.974;21.722;2022-10-19T06:51:12;33.88;;;19.92;;
71298;SDS011;59083;47.974;21.722;2022-10-19T06:54:13;35.08;;;20.98;;
71298;SDS011;59083;47.974;21.722;2022-10-19T06:57:14;38.63;;;20.53;;
71298;SDS011;59083;47.974;21.722;2022-10-19T07:00:16;35.60;;;19.33;;
71298;SDS011;59083;47.974;21.722;2022-10-19T07:03:17;36.67;;;19.70;;
71298;SDS011;59083;47.974;21.722;2022-10-19T07:06:18;32.42;;;18.30;;
71298;SDS011;59083;47.974;21.722;2022-10-19T07:09:20;42.88;;;19.02;;
71298;SDS011;59083;47.974;21.722;2022-10-19T07:12:22;33.13;;;18.73;;
71298;SDS011;59083;47.974;21.722;2022-10-19T07:15:23;34.17;;;19.70;;
71298;SDS011;59083;47.974;21.722;2022-10-19T07:18:25;33.42;;;17.95;;
71298;SDS011;59083;47.974;21.722;2022-10-19T07:21:27;33.85;;;17.62;;
71298;SDS011;59083;47.974;21.722;2022-10-19T07:24:28;32.90;;;19.08;;
71298;SDS011;59083;47.974;21.722;2022-10-19T07:27:29;32.47;;;18.20;;
71298;SDS011;59083;47.974;21.722;2022-10-19T07:30:31;35.90;;;18.37;;
71298;SDS011;59083;47.974;21.722;2022-10-19T07:33:32;32.45;;;18.90;;
71298;SDS011;59083;47.974;21.722;2022-10-19T07:36:34;34.70;;;18.87;;
71298;SDS011;59083;47.974;21.722;2022-10-19T07:39:36;33.00;;;18.50;;
71298;SDS011;59083;47.974;21.722;2022-10-19T07:42:37;32.13;;;16.77;;
71298;SDS011;59083;47.974;21.722;2022-10-19T07:45:39;36.60;;;17.70;;
71298;SDS011;59083;47.974;21.722;2022-10-19T07:48:40;30.50;;;17.27;;
71298;SDS011;59083;47.974;21.722;2022-10-19T07:51:41;30.02;;;16.98;;
71298;SDS011;59083;47.974;21.722;2022-10-19T07:54:43;30.23;;;16.62;;
71298;SDS011;59083;47.974;21.722;2022-10-19T07:57:46;25.37;;;14.60;;
71298;SDS011;59083;47.974;21.722;2022-10-19T08:00:48;29.60;;;15.13;;
71298;SDS011;59083;47.974;21.722;2022-10-19T08:03:50;22.75;;;13.90;;
71298;SDS011;59083;47.974;21.722;2022-10-19T08:06:53;21.62;;;12.55;;
71298;SDS011;59083;47.974;21.722;2022-10-19T08:09:54;21.17;;;12.18;;
71298;SDS011;59083;47.974;21.722;2022-10-19T08:12:55;21.40;;;11.87;;
71298;SDS011;59083;47.974;21.722;2022-10-19T08:15:56;26.30;;;13.40;;
71298;SDS011;59083;47.974;21.722;2022-10-19T08:18:59;21.02;;;11.40;;
71298;SDS011;59083;47.974;21.722;2022-10-19T08:22:02;19.45;;;11.35;;
71298;SDS011;59083;47.974;21.722;2022-10-19T08:25:03;21.12;;;11.70;;
71298;SDS011;59083;47.974;21.722;2022-10-19T08:28:05;20.67;;;11.73;;
71298;SDS011;59083;47.974;21.722;2022-10-19T08:31:17;19.97;;;11.23;;
71298;SDS011;59083;47.974;21.722;2022-10-19T08:34:20;22.05;;;10.55;;
71298;SDS011;59083;47.974;21.722;2022-10-19T08:37:21;16.30;;;9.80;;
71298;SDS011;59083;47.974;21.722;2022-10-19T08:40:24;19.67;;;10.20;;
71298;SDS011;59083;47.974;21.722;2022-10-19T08:43:29;18.53;;;10.10;;
71298;SDS011;59083;47.974;21.722;2022-10-19T08:46:43;14.70;;;8.30;;
71298;SDS011;59083;47.974;21.722;2022-10-19T08:50:15;15.93;;;8.57;;
71298;SDS011;59083;47.974;21.722;2022-10-19T08:53:51;18.60;;;9.20;;
71298;SDS011;59083;47.974;21.722;2022-10-19T09:07:34;14.20;;;8.45;;
71298;SDS011;59083;47.974;21.722;2022-10-19T09:10:50;17.15;;;7.87;;
71298;SDS011;59083;47.974;21.722;2022-10-19T09:17:41;15.63;;;8.27;;
71298;SDS011;59083;47.974;21.722;2022-10-19T09:20:42;12.67;;;7.53;;
71298;SDS011;59083;47.974;21.722;2022-10-19T09:26:57;9.10;;;5.12;;
71298;SDS011;59083;47.974;21.722;2022-10-19T09:30:04;12.65;;;4.70;;
71298;SDS011;59083;47.974;21.722;2022-10-19T09:33:15;8.57;;;4.40;;
71298;SDS011;59083;47.974;21.722;2022-10-19T09:36:23;8.20;;;4.43;;
71298;SDS011;59083;47.974;21.722;2022-10-19T09:39:33;7.80;;;3.90;;
71298;SDS011;59083;47.974;21.722;2022-10-19T09:42:35;6.18;;;2.65;;
71298;SDS011;59083;47.974;21.722;2022-10-19T09:48:46;7.60;;;4.10;;
71298;SDS011;59083;47.974;21.722;2022-10-19T09:51:50;6.67;;;2.67;;
71298;SDS011;59083;47.974;21.722;2022-10-19T09:55:02;7.07;;;2.70;;
71298;SDS011;59083;47.974;21.722;2022-10-19T10:01:29;10.25;;;5.40;;
71298;SDS011;59083;47.974;21.722;2022-10-19T10:04:32;12.47;;;4.27;;
71298;SDS011;59083;47.974;21.722;2022-10-19T10:07:36;5.37;;;2.67;;
71298;SDS011;59083;47.974;21.722;2022-10-19T10:10:41;6.62;;;2.30;;
71298;SDS011;59083;47.974;21.722;2022-10-19T10:13:49;5.43;;;2.53;;
71298;SDS011;59083;47.974;21.722;2022-10-19T10:16:55;6.80;;;3.10;;
71298;SDS011;59083;47.974;21.722;2022-10-19T10:20:03;6.20;;;2.83;;
71298;SDS011;59083;47.974;21.722;2022-10-19T10:23:27;5.90;;;3.13;;
71298;SDS011;59083;47.974;21.722;2022-10-19T10:26:35;11.38;;;3.37;;
71298;SDS011;59083;47.974;21.722;2022-10-19T10:29:50;5.80;;;2.92;;
71298;SDS011;59083;47.974;21.722;2022-10-19T10:32:54;5.55;;;2.90;;
71298;SDS011;59083;47.974;21.722;2022-10-19T10:36:00;6.45;;;2.87;;
71298;SDS011;59083;47.974;21.722;2022-10-19T10:39:04;5.50;;;2.63;;
71298;SDS011;59083;47.974;21.722;2022-10-19T10:42:14;6.35;;;2.70;;
71298;SDS011;59083;47.974;21.722;2022-10-19T10:48:30;7.50;;;3.45;;
71298;SDS011;59083;47.974;21.722;2022-10-19T10:51:39;5.67;;;3.00;;
71298;SDS011;59083;47.974;21.722;2022-10-19T10:58:17;7.07;;;2.90;;
71298;SDS011;59083;47.974;21.722;2022-10-19T11:01:32;5.78;;;2.87;;
71298;SDS011;59083;47.974;21.722;2022-10-19T11:04:43;9.52;;;3.58;;
71298;SDS011;59083;47.974;21.722;2022-10-19T11:17:42;6.53;;;3.20;;
71298;SDS011;59083;47.974;21.722;2022-10-19T11:21:16;10.88;;;5.72;;
71298;SDS011;59083;47.974;21.722;2022-10-19T11:28:15;8.17;;;3.67;;
71298;SDS011;59083;47.974;21.722;2022-10-19T11:31:31;10.32;;;5.57;;
71298;SDS011;59083;47.974;21.722;2022-10-19T11:38:02;6.97;;;3.40;;
71298;SDS011;59083;47.974;21.722;2022-10-19T11:50:58;6.20;;;3.33;;
71298;SDS011;59083;47.974;21.722;2022-10-19T11:57:43;8.00;;;3.50;;
71298;SDS011;59083;47.974;21.722;2022-10-19T12:01:07;6.97;;;3.73;;
71298;SDS011;59083;47.974;21.722;2022-10-19T12:04:28;12.43;;;3.97;;
71298;SDS011;59083;47.974;21.722;2022-10-19T12:14:39;9.17;;;4.07;;
71298;SDS011;59083;47.974;21.722;2022-10-19T12:17:44;7.83;;;3.70;;
71298;SDS011;59083;47.974;21.722;2022-10-19T12:20:48;8.55;;;3.80;;
71298;SDS011;59083;47.974;21.722;2022-10-19T12:23:52;7.05;;;3.80;;
71298;SDS011;59083;47.974;21.722;2022-10-19T12:26:56;8.40;;;4.60;;
71298;SDS011;59083;47.974;21.722;2022-10-19T12:30:19;10.27;;;4.73;;
71298;SDS011;59083;47.974;21.722;2022-10-19T12:33:24;13.37;;;6.07;;
71298;SDS011;59083;47.974;21.722;2022-10-19T12:42:48;10.85;;;4.68;;
71298;SDS011;59083;47.974;21.722;2022-10-19T12:46:26;11.90;;;4.63;;
71298;SDS011;59083;47.974;21.722;2022-10-19T12:52:47;11.27;;;5.72;;
71298;SDS011;59083;47.974;21.722;2022-10-19T12:56:12;10.25;;;4.93;;
71298;SDS011;59083;47.974;21.722;2022-10-19T12:59:22;9.52;;;5.00;;
71298;SDS011;59083;47.974;21.722;2022-10-19T13:02:28;8.00;;;4.73;;
71298;SDS011;59083;47.974;21.722;2022-10-19T13:05:33;9.40;;;5.20;;
71298;SDS011;59083;47.974;21.722;2022-10-19T13:08:41;10.20;;;5.07;;
71298;SDS011;59083;47.974;21.722;2022-10-19T13:25:26;9.98;;;4.32;;
71298;SDS011;59083;47.974;21.722;2022-10-19T13:28:35;8.98;;;4.40;;
71298;SDS011;59083;47.974;21.722;2022-10-19T13:31:38;9.68;;;4.45;;
71298;SDS011;59083;47.974;21.722;2022-10-19T13:34:39;8.93;;;4.67;;
71298;SDS011;59083;47.974;21.722;2022-10-19T13:37:41;10.97;;;4.37;;
71298;SDS011;59083;47.974;21.722;2022-10-19T13:44:02;8.70;;;4.28;;
71298;SDS011;59083;47.974;21.722;2022-10-19T13:50:28;9.13;;;4.63;;
71298;SDS011;59083;47.974;21.722;2022-10-19T13:54:07;10.23;;;4.47;;
71298;SDS011;59083;47.974;21.722;2022-10-19T14:07:29;9.17;;;4.63;;
71298;SDS011;59083;47.974;21.722;2022-10-19T14:10:36;9.30;;;4.77;;
71298;SDS011;59083;47.974;21.722;2022-10-19T14:13:38;8.82;;;5.18;;
71298;SDS011;59083;47.974;21.722;2022-10-19T14:20:23;13.82;;;4.90;;
71298;SDS011;59083;47.974;21.722;2022-10-19T14:23:33;9.73;;;4.80;;
71298;SDS011;59083;47.974;21.722;2022-10-19T14:26:35;9.70;;;4.43;;
71298;SDS011;59083;47.974;21.722;2022-10-19T14:29:44;9.55;;;5.03;;
71298;SDS011;59083;47.974;21.722;2022-10-19T14:32:47;9.88;;;4.87;;
71298;SDS011;59083;47.974;21.722;2022-10-19T14:35:49;9.05;;;4.50;;
71298;SDS011;59083;47.974;21.722;2022-10-19T14:38:52;9.97;;;4.33;;
71298;SDS011;59083;47.974;21.722;2022-10-19T14:41:55;11.10;;;4.70;;
71298;SDS011;59083;47.974;21.722;2022-10-19T14:44:56;9.52;;;4.50;;
71298;SDS011;59083;47.974;21.722;2022-10-19T14:48:05;9.60;;;4.60;;
71298;SDS011;59083;47.974;21.722;2022-10-19T14:51:23;10.57;;;5.15;;
71298;SDS011;59083;47.974;21.722;2022-10-19T14:54:42;17.20;;;9.17;;
71298;SDS011;59083;47.974;21.722;2022-10-19T14:57:46;17.80;;;8.43;;
71298;SDS011;59083;47.974;21.722;2022-10-19T15:00:50;13.23;;;6.82;;
71298;SDS011;59083;47.974;21.722;2022-10-19T15:03:53;13.35;;;5.43;;
71298;SDS011;59083;47.974;21.722;2022-10-19T15:06:55;12.75;;;5.37;;
71298;SDS011;59083;47.974;21.722;2022-10-19T15:09:59;11.77;;;5.17;;
71298;SDS011;59083;47.974;21.722;2022-10-19T15:13:03;8.27;;;4.70;;
71298;SDS011;59083;47.974;21.722;2022-10-19T15:16:24;13.45;;;4.97;;
71298;SDS011;59083;47.974;21.722;2022-10-19T15:19:32;12.55;;;5.32;;
71298;SDS011;59083;47.974;21.722;2022-10-19T15:22:40;9.93;;;5.07;;
71298;SDS011;59083;47.974;21.722;2022-10-19T15:25:41;10.23;;;4.73;;
71298;SDS011;59083;47.974;21.722;2022-10-19T15:28:43;13.67;;;4.90;;
71298;SDS011;59083;47.974;21.722;2022-10-19T15:31:44;13.95;;;7.32;;
71298;SDS011;59083;47.974;21.722;2022-10-19T15:34:45;13.98;;;7.30;;
71298;SDS011;59083;47.974;21.722;2022-10-19T15:37:47;17.00;;;6.60;;
71298;SDS011;59083;47.974;21.722;2022-10-19T15:40:54;12.87;;;6.00;;
71298;SDS011;59083;47.974;21.722;2022-10-19T15:43:59;12.30;;;5.40;;
71298;SDS011;59083;47.974;21.722;2022-10-19T15:47:24;12.88;;;5.28;;
71298;SDS011;59083;47.974;21.722;2022-10-19T15:50:29;14.23;;;5.37;;
71298;SDS011;59083;47.974;21.722;2022-10-19T15:53:36;12.30;;;5.03;;
71298;SDS011;59083;47.974;21.722;2022-10-19T15:56:37;8.30;;;4.83;;
71298;SDS011;59083;47.974;21.722;2022-10-19T15:59:40;8.23;;;4.30;;
71298;SDS011;59083;47.974;21.722;2022-10-19T16:02:41;11.93;;;5.50;;
71298;SDS011;59083;47.974;21.722;2022-10-19T16:05:42;8.07;;;4.05;;
71298;SDS011;59083;47.974;21.722;2022-10-19T16:08:44;8.35;;;4.40;;
71298;SDS011;59083;47.974;21.722;2022-10-19T16:11:50;10.13;;;4.50;;
71298;SDS011;59083;47.974;21.722;2022-10-19T16:14:56;10.53;;;4.47;;
71298;SDS011;59083;47.974;21.722;2022-10-19T16:17:58;9.60;;;4.30;;
71298;SDS011;59083;47.974;21.722;2022-10-19T16:21:00;10.20;;;4.28;;
71298;SDS011;59083;47.974;21.722;2022-10-19T16:24:02;10.43;;;4.15;;
71298;SDS011;59083;47.974;21.722;2022-10-19T16:27:04;12.77;;;4.07;;
71298;SDS011;59083;47.974;21.722;2022-10-19T16:30:06;11.53;;;5.23;;
71298;SDS011;59083;47.974;21.722;2022-10-19T16:33:08;11.30;;;4.57;;
71298;SDS011;59083;47.974;21.722;2022-10-19T16:36:09;9.25;;;4.55;;
71298;SDS011;59083;47.974;21.722;2022-10-19T16:39:10;9.15;;;4.80;;
71298;SDS011;59083;47.974;21.722;2022-10-19T16:42:12;17.23;;;7.23;;
71298;SDS011;59083;47.974;21.722;2022-10-19T16:45:13;11.57;;;4.90;;
71298;SDS011;59083;47.974;21.722;2022-10-19T16:48:14;9.65;;;4.53;;
71298;SDS011;59083;47.974;21.722;2022-10-19T16:51:17;9.85;;;4.82;;
71298;SDS011;59083;47.974;21.722;2022-10-19T16:54:33;9.45;;;4.30;;
71298;SDS011;59083;47.974;21.722;2022-10-19T16:57:34;10.57;;;4.60;;
71298;SDS011;59083;47.974;21.722;2022-10-19T17:00:35;8.87;;;4.20;;
71298;SDS011;59083;47.974;21.722;2022-10-19T17:03:36;13.77;;;5.20;;
71298;SDS011;59083;47.974;21.722;2022-10-19T17:06:38;12.02;;;4.62;;
71298;SDS011;59083;47.974;21.722;2022-10-19T17:09:40;14.07;;;4.70;;
71298;SDS011;59083;47.974;21.722;2022-10-19T17:12:41;7.67;;;4.00;;
71298;SDS011;59083;47.974;21.722;2022-10-19T17:15:42;9.80;;;4.00;;
71298;SDS011;59083;47.974;21.722;2022-10-19T17:18:44;7.85;;;3.67;;
71298;SDS011;59083;47.974;21.722;2022-10-19T17:21:45;9.90;;;4.40;;
71298;SDS011;59083;47.974;21.722;2022-10-19T17:24:47;11.60;;;4.60;;
71298;SDS011;59083;47.974;21.722;2022-10-19T17:27:51;8.37;;;4.00;;
71298;SDS011;59083;47.974;21.722;2022-10-19T17:30:52;9.63;;;3.90;;
71298;SDS011;59083;47.974;21.722;2022-10-19T17:33:54;8.65;;;3.97;;
71298;SDS011;59083;47.974;21.722;2022-10-19T17:36:56;9.05;;;3.70;;
71298;SDS011;59083;47.974;21.722;2022-10-19T17:39:57;10.73;;;3.87;;
71298;SDS011;59083;47.974;21.722;2022-10-19T17:42:58;8.23;;;4.00;;
71298;SDS011;59083;47.974;21.722;2022-10-19T17:45:59;9.23;;;4.03;;
71298;SDS011;59083;47.974;21.722;2022-10-19T17:49:02;9.32;;;3.97;;
71298;SDS011;59083;47.974;21.722;2022-10-19T17:52:04;7.45;;;3.72;;
71298;SDS011;59083;47.974;21.722;2022-10-19T17:55:05;12.07;;;3.78;;
71298;SDS011;59083;47.974;21.722;2022-10-19T17:58:09;11.07;;;4.10;;
71298;SDS011;59083;47.974;21.722;2022-10-19T18:01:10;10.90;;;4.13;;
71298;SDS011;59083;47.974;21.722;2022-10-19T18:04:12;8.23;;;4.20;;
71298;SDS011;59083;47.974;21.722;2022-10-19T18:07:13;15.50;;;3.90;;
71298;SDS011;59083;47.974;21.722;2022-10-19T18:10:14;8.98;;;4.05;;
71298;SDS011;59083;47.974;21.722;2022-10-19T18:13:15;8.43;;;3.70;;
71298;SDS011;59083;47.974;21.722;2022-10-19T18:16:21;8.43;;;4.10;;
71298;SDS011;59083;47.974;21.722;2022-10-19T18:19:23;10.90;;;4.22;;
71298;SDS011;59083;47.974;21.722;2022-10-19T18:22:25;11.02;;;4.15;;
71298;SDS011;59083;47.974;21.722;2022-10-19T18:25:26;8.05;;;3.60;;
71298;SDS011;59083;47.974;21.722;2022-10-19T18:28:28;10.67;;;3.80;;
71298;SDS011;59083;47.974;21.722;2022-10-19T18:31:31;8.17;;;3.90;;
71298;SDS011;59083;47.974;21.722;2022-10-19T18:34:33;9.50;;;4.28;;
71298;SDS011;59083;47.974;21.722;2022-10-19T18:37:34;9.65;;;3.83;;
71298;SDS011;59083;47.974;21.722;2022-10-19T18:40:36;7.55;;;3.60;;
71298;SDS011;59083;47.974;21.722;2022-10-19T18:43:38;8.43;;;4.27;;
71298;SDS011;59083;47.974;21.722;2022-10-19T18:46:40;10.37;;;3.43;;
71298;SDS011;59083;47.974;21.722;2022-10-19T18:49:41;8.23;;;4.15;;
71298;SDS011;59083;47.974;21.722;2022-10-19T18:52:43;10.27;;;4.20;;
71298;SDS011;59083;47.974;21.722;2022-10-19T18:55:44;9.57;;;3.78;;
71298;SDS011;59083;47.974;21.722;2022-10-19T18:58:46;8.23;;;4.10;;
71298;SDS011;59083;47.974;21.722;2022-10-19T19:01:47;11.60;;;4.30;;
71298;SDS011;59083;47.974;21.722;2022-10-19T19:04:49;10.70;;;4.85;;
71298;SDS011;59083;47.974;21.722;2022-10-19T19:07:50;11.57;;;4.80;;
71298;SDS011;59083;47.974;21.722;2022-10-19T19:10:51;10.10;;;4.50;;
71298;SDS011;59083;47.974;21.722;2022-10-19T19:13:54;11.27;;;4.80;;
71298;SDS011;59083;47.974;21.722;2022-10-19T19:16:57;12.47;;;5.40;;
71298;SDS011;59083;47.974;21.722;2022-10-19T19:19:58;14.30;;;5.28;;
71298;SDS011;59083;47.974;21.722;2022-10-19T19:23:00;10.85;;;5.12;;
71298;SDS011;59083;47.974;21.722;2022-10-19T19:26:01;9.57;;;4.53;;
71298;SDS011;59083;47.974;21.722;2022-10-19T19:29:03;11.57;;;4.70;;
71298;SDS011;59083;47.974;21.722;2022-10-19T19:32:04;10.97;;;5.20;;
71298;SDS011;59083;47.974;21.722;2022-10-19T19:35:06;10.32;;;4.93;;
71298;SDS011;59083;47.974;21.722;2022-10-19T19:38:07;10.80;;;5.18;;
71298;SDS011;59083;47.974;21.722;2022-10-19T19:41:10;15.25;;;5.03;;
71298;SDS011;59083;47.974;21.722;2022-10-19T19:44:12;11.63;;;4.80;;
71298;SDS011;59083;47.974;21.722;2022-10-19T19:47:14;9.50;;;4.50;;
71298;SDS011;59083;47.974;21.722;2022-10-19T19:50:16;10.60;;;4.43;;
71298;SDS011;59083;47.974;21.722;2022-10-19T19:53:17;9.68;;;3.90;;
71298;SDS011;59083;47.974;21.722;2022-10-19T19:56:18;9.02;;;4.12;;
71298;SDS011;59083;47.974;21.722;2022-10-19T19:59:24;11.53;;;4.63;;
71298;SDS011;59083;47.974;21.722;2022-10-19T20:02:25;10.37;;;4.17;;